sensor_id;sensor_type;location;lat;lon;timestamp;P1;durP1;ratioP1;P2;durP2;ratioP2
41635;SDS011;27623;51.966;4.602;2023-05-07T00:01:10;18.83;;;13.10;;
41635;SDS011;27623;51.966;4.602;2023-05-07T00:03:36;18.75;;;11.93;;
41635;SDS011;27623;51.966;4.602;2023-05-07T00:06:03;19.42;;;13.05;;
41635;SDS011;27623;51.966;4.602;2023-05-07T00:08:28;19.40;;;13.05;;
41635;SDS011;27623;51.966;4.602;2023-05-07T00:10:53;20.95;;;12.85;;
41635;SDS011;27623;51.966;4.602;2023-05-07T00:13:19;19.85;;;13.20;;
41635;SDS011;27623;51.966;4.602;2023-05-07T00:15:47;21.88;;;14.02;;
41635;SDS011;27623;51.966;4.602;2023-05-07T00:18:12;19.67;;;13.35;;
41635;SDS011;27623;51.966;4.602;2023-05-07T00:20:37;21.88;;;13.10;;
41635;SDS011;27623;51.966;4.602;2023-05-07T00:23:03;25.00;;;13.55;;
41635;SDS011;27623;51.966;4.602;2023-05-07T00:25:28;23.35;;;14.50;;
41635;SDS011;27623;51.966;4.602;2023-05-07T00:27:54;18.70;;;12.90;;
41635;SDS011;27623;51.966;4.602;2023-05-07T00:30:27;18.45;;;12.63;;
41635;SDS011;27623;51.966;4.602;2023-05-07T00:32:53;20.58;;;13.48;;
41635;SDS011;27623;51.966;4.602;2023-05-07T00:35:18;20.17;;;13.80;;
41635;SDS011;27623;51.966;4.602;2023-05-07T00:37:43;19.48;;;12.48;;
41635;SDS011;27623;51.966;4.602;2023-05-07T00:40:09;17.88;;;12.60;;
41635;SDS011;27623;51.966;4.602;2023-05-07T00:42:35;18.70;;;13.23;;
41635;SDS011;27623;51.966;4.602;2023-05-07T00:45:01;19.55;;;12.77;;
41635;SDS011;27623;51.966;4.602;2023-05-07T00:47:27;19.13;;;12.85;;
41635;SDS011;27623;51.966;4.602;2023-05-07T00:49:53;19.95;;;12.82;;
41635;SDS011;27623;51.966;4.602;2023-05-07T00:52:19;19.35;;;13.07;;
41635;SDS011;27623;51.966;4.602;2023-05-07T00:54:47;19.25;;;13.30;;
41635;SDS011;27623;51.966;4.602;2023-05-07T00:57:13;22.33;;;14.35;;
41635;SDS011;27623;51.966;4.602;2023-05-07T00:59:39;19.88;;;14.00;;
41635;SDS011;27623;51.966;4.602;2023-05-07T01:02:06;21.45;;;14.07;;
41635;SDS011;27623;51.966;4.602;2023-05-07T01:04:34;22.25;;;14.02;;
41635;SDS011;27623;51.966;4.602;2023-05-07T01:07:00;20.40;;;14.00;;
41635;SDS011;27623;51.966;4.602;2023-05-07T01:09:26;21.40;;;15.05;;
41635;SDS011;27623;51.966;4.602;2023-05-07T01:11:53;24.40;;;15.38;;
41635;SDS011;27623;51.966;4.602;2023-05-07T01:14:22;23.17;;;15.23;;
41635;SDS011;27623;51.966;4.602;2023-05-07T01:16:48;24.35;;;15.80;;
41635;SDS011;27623;51.966;4.602;2023-05-07T01:19:16;26.33;;;16.95;;
41635;SDS011;27623;51.966;4.602;2023-05-07T01:21:46;28.63;;;16.25;;
41635;SDS011;27623;51.966;4.602;2023-05-07T01:24:13;30.80;;;17.40;;
41635;SDS011;27623;51.966;4.602;2023-05-07T01:26:39;28.25;;;16.92;;
41635;SDS011;27623;51.966;4.602;2023-05-07T01:29:05;30.63;;;17.13;;
41635;SDS011;27623;51.966;4.602;2023-05-07T01:31:30;24.63;;;17.63;;
41635;SDS011;27623;51.966;4.602;2023-05-07T01:33:57;30.42;;;17.27;;
41635;SDS011;27623;51.966;4.602;2023-05-07T01:36:25;27.55;;;16.95;;
41635;SDS011;27623;51.966;4.602;2023-05-07T01:38:53;29.10;;;16.48;;
41635;SDS011;27623;51.966;4.602;2023-05-07T01:41:19;25.15;;;16.65;;
41635;SDS011;27623;51.966;4.602;2023-05-07T01:43:46;25.77;;;16.30;;
41635;SDS011;27623;51.966;4.602;2023-05-07T01:46:12;27.52;;;16.55;;
41635;SDS011;27623;51.966;4.602;2023-05-07T01:48:38;25.83;;;16.05;;
41635;SDS011;27623;51.966;4.602;2023-05-07T01:51:04;23.35;;;15.80;;
41635;SDS011;27623;51.966;4.602;2023-05-07T01:53:36;23.80;;;15.52;;
41635;SDS011;27623;51.966;4.602;2023-05-07T01:56:02;22.92;;;15.98;;
41635;SDS011;27623;51.966;4.602;2023-05-07T01:58:27;22.65;;;15.80;;
41635;SDS011;27623;51.966;4.602;2023-05-07T02:00:53;24.08;;;16.02;;
41635;SDS011;27623;51.966;4.602;2023-05-07T02:03:18;25.27;;;15.73;;
41635;SDS011;27623;51.966;4.602;2023-05-07T02:05:43;23.50;;;15.80;;
41635;SDS011;27623;51.966;4.602;2023-05-07T02:08:09;25.05;;;16.60;;
41635;SDS011;27623;51.966;4.602;2023-05-07T02:10:34;20.52;;;15.25;;
41635;SDS011;27623;51.966;4.602;2023-05-07T02:13:01;23.80;;;14.88;;
41635;SDS011;27623;51.966;4.602;2023-05-07T02:15:27;21.77;;;16.15;;
41635;SDS011;27623;51.966;4.602;2023-05-07T02:18:25;22.00;;;15.20;;
41635;SDS011;27623;51.966;4.602;2023-05-07T02:20:44;21.23;;;15.93;;
41635;SDS011;27623;51.966;4.602;2023-05-07T02:23:09;24.92;;;15.73;;
41635;SDS011;27623;51.966;4.602;2023-05-07T02:25:34;20.17;;;14.63;;
41635;SDS011;27623;51.966;4.602;2023-05-07T02:28:00;21.77;;;15.45;;
41635;SDS011;27623;51.966;4.602;2023-05-07T02:30:28;24.35;;;16.60;;
41635;SDS011;27623;51.966;4.602;2023-05-07T02:32:53;23.05;;;14.93;;
41635;SDS011;27623;51.966;4.602;2023-05-07T02:35:21;23.70;;;16.30;;
41635;SDS011;27623;51.966;4.602;2023-05-07T02:37:46;19.13;;;14.45;;
41635;SDS011;27623;51.966;4.602;2023-05-07T02:40:11;22.45;;;15.90;;
41635;SDS011;27623;51.966;4.602;2023-05-07T02:42:37;22.05;;;14.98;;
41635;SDS011;27623;51.966;4.602;2023-05-07T02:45:07;21.63;;;14.32;;
41635;SDS011;27623;51.966;4.602;2023-05-07T02:47:33;21.58;;;15.15;;
41635;SDS011;27623;51.966;4.602;2023-05-07T02:49:59;21.02;;;15.38;;
41635;SDS011;27623;51.966;4.602;2023-05-07T02:52:24;22.10;;;14.18;;
41635;SDS011;27623;51.966;4.602;2023-05-07T02:54:50;22.23;;;15.13;;
41635;SDS011;27623;51.966;4.602;2023-05-07T02:57:15;22.60;;;14.18;;
41635;SDS011;27623;51.966;4.602;2023-05-07T02:59:41;18.70;;;13.38;;
41635;SDS011;27623;51.966;4.602;2023-05-07T03:02:07;19.08;;;13.57;;
41635;SDS011;27623;51.966;4.602;2023-05-07T03:04:32;20.08;;;13.88;;
41635;SDS011;27623;51.966;4.602;2023-05-07T03:06:57;18.77;;;13.48;;
41635;SDS011;27623;51.966;4.602;2023-05-07T03:09:23;17.70;;;13.30;;
41635;SDS011;27623;51.966;4.602;2023-05-07T03:11:48;17.33;;;13.20;;
41635;SDS011;27623;51.966;4.602;2023-05-07T03:14:14;20.40;;;13.35;;
41635;SDS011;27623;51.966;4.602;2023-05-07T03:16:39;15.25;;;12.23;;
41635;SDS011;27623;51.966;4.602;2023-05-07T03:19:07;17.65;;;13.25;;
41635;SDS011;27623;51.966;4.602;2023-05-07T03:21:33;15.63;;;12.48;;
41635;SDS011;27623;51.966;4.602;2023-05-07T03:23:59;19.77;;;13.25;;
41635;SDS011;27623;51.966;4.602;2023-05-07T03:26:25;17.92;;;13.45;;
41635;SDS011;27623;51.966;4.602;2023-05-07T03:28:50;16.33;;;12.52;;
41635;SDS011;27623;51.966;4.602;2023-05-07T03:31:16;17.42;;;13.52;;
41635;SDS011;27623;51.966;4.602;2023-05-07T03:33:51;17.23;;;12.73;;
41635;SDS011;27623;51.966;4.602;2023-05-07T03:36:18;17.38;;;12.90;;
41635;SDS011;27623;51.966;4.602;2023-05-07T03:38:44;19.20;;;13.75;;
41635;SDS011;27623;51.966;4.602;2023-05-07T03:41:11;16.23;;;11.73;;
41635;SDS011;27623;51.966;4.602;2023-05-07T03:43:37;18.33;;;13.65;;
41635;SDS011;27623;51.966;4.602;2023-05-07T03:46:05;17.48;;;12.98;;
41635;SDS011;27623;51.966;4.602;2023-05-07T03:48:30;20.27;;;13.57;;
41635;SDS011;27623;51.966;4.602;2023-05-07T03:50:56;17.45;;;12.68;;
41635;SDS011;27623;51.966;4.602;2023-05-07T03:53:22;14.13;;;11.82;;
41635;SDS011;27623;51.966;4.602;2023-05-07T03:55:48;18.40;;;12.02;;
41635;SDS011;27623;51.966;4.602;2023-05-07T03:58:13;15.90;;;11.65;;
41635;SDS011;27623;51.966;4.602;2023-05-07T04:00:38;15.90;;;11.50;;
41635;SDS011;27623;51.966;4.602;2023-05-07T04:03:05;19.20;;;12.23;;
41635;SDS011;27623;51.966;4.602;2023-05-07T04:05:30;14.75;;;11.65;;
41635;SDS011;27623;51.966;4.602;2023-05-07T04:07:57;16.75;;;11.77;;
41635;SDS011;27623;51.966;4.602;2023-05-07T04:10:23;17.40;;;12.00;;
41635;SDS011;27623;51.966;4.602;2023-05-07T04:12:49;14.88;;;11.60;;
41635;SDS011;27623;51.966;4.602;2023-05-07T04:15:14;14.65;;;11.00;;
41635;SDS011;27623;51.966;4.602;2023-05-07T04:17:42;16.67;;;10.38;;
41635;SDS011;27623;51.966;4.602;2023-05-07T04:20:08;15.35;;;11.48;;
41635;SDS011;27623;51.966;4.602;2023-05-07T04:22:35;13.80;;;10.57;;
41635;SDS011;27623;51.966;4.602;2023-05-07T04:25:01;14.75;;;10.93;;
41635;SDS011;27623;51.966;4.602;2023-05-07T04:27:27;14.63;;;11.32;;
41635;SDS011;27623;51.966;4.602;2023-05-07T04:29:53;14.40;;;10.63;;
41635;SDS011;27623;51.966;4.602;2023-05-07T04:32:20;13.50;;;10.73;;
41635;SDS011;27623;51.966;4.602;2023-05-07T04:34:46;16.30;;;11.02;;
41635;SDS011;27623;51.966;4.602;2023-05-07T04:37:11;15.02;;;10.77;;
41635;SDS011;27623;51.966;4.602;2023-05-07T04:39:37;13.90;;;10.77;;
41635;SDS011;27623;51.966;4.602;2023-05-07T04:42:02;17.90;;;11.32;;
41635;SDS011;27623;51.966;4.602;2023-05-07T04:44:28;15.25;;;10.13;;
41635;SDS011;27623;51.966;4.602;2023-05-07T04:46:56;14.82;;;10.88;;
41635;SDS011;27623;51.966;4.602;2023-05-07T04:49:21;15.93;;;10.40;;
41635;SDS011;27623;51.966;4.602;2023-05-07T04:51:47;13.32;;;10.40;;
41635;SDS011;27623;51.966;4.602;2023-05-07T04:54:15;14.35;;;10.70;;
41635;SDS011;27623;51.966;4.602;2023-05-07T04:56:40;15.32;;;10.18;;
41635;SDS011;27623;51.966;4.602;2023-05-07T04:59:08;13.48;;;9.93;;
41635;SDS011;27623;51.966;4.602;2023-05-07T05:01:33;11.65;;;9.60;;
41635;SDS011;27623;51.966;4.602;2023-05-07T05:03:59;16.23;;;9.93;;
41635;SDS011;27623;51.966;4.602;2023-05-07T05:06:27;11.10;;;9.50;;
41635;SDS011;27623;51.966;4.602;2023-05-07T05:08:52;13.25;;;9.75;;
41635;SDS011;27623;51.966;4.602;2023-05-07T05:11:18;14.02;;;9.90;;
41635;SDS011;27623;51.966;4.602;2023-05-07T05:13:45;13.88;;;9.93;;
41635;SDS011;27623;51.966;4.602;2023-05-07T05:16:13;13.48;;;10.32;;
41635;SDS011;27623;51.966;4.602;2023-05-07T05:18:39;13.70;;;10.07;;
41635;SDS011;27623;51.966;4.602;2023-05-07T05:21:05;14.35;;;11.15;;
41635;SDS011;27623;51.966;4.602;2023-05-07T05:23:30;17.73;;;11.25;;
41635;SDS011;27623;51.966;4.602;2023-05-07T05:25:58;14.57;;;11.05;;
41635;SDS011;27623;51.966;4.602;2023-05-07T05:28:23;14.63;;;11.07;;
41635;SDS011;27623;51.966;4.602;2023-05-07T05:30:49;16.35;;;11.57;;
41635;SDS011;27623;51.966;4.602;2023-05-07T05:33:15;15.35;;;10.98;;
41635;SDS011;27623;51.966;4.602;2023-05-07T05:35:40;16.13;;;11.23;;
41635;SDS011;27623;51.966;4.602;2023-05-07T05:38:08;16.77;;;11.43;;
41635;SDS011;27623;51.966;4.602;2023-05-07T05:40:33;16.30;;;12.35;;
41635;SDS011;27623;51.966;4.602;2023-05-07T05:42:59;14.60;;;10.88;;
41635;SDS011;27623;51.966;4.602;2023-05-07T05:45:24;21.02;;;13.85;;
41635;SDS011;27623;51.966;4.602;2023-05-07T05:47:50;17.02;;;11.90;;
41635;SDS011;27623;51.966;4.602;2023-05-07T05:50:15;19.77;;;12.70;;
41635;SDS011;27623;51.966;4.602;2023-05-07T05:52:41;19.05;;;12.75;;
41635;SDS011;27623;51.966;4.602;2023-05-07T05:55:07;18.63;;;13.63;;
41635;SDS011;27623;51.966;4.602;2023-05-07T05:57:33;18.48;;;13.27;;
41635;SDS011;27623;51.966;4.602;2023-05-07T05:59:58;17.33;;;12.88;;
41635;SDS011;27623;51.966;4.602;2023-05-07T06:02:23;19.67;;;13.07;;
41635;SDS011;27623;51.966;4.602;2023-05-07T06:04:49;19.15;;;12.95;;
41635;SDS011;27623;51.966;4.602;2023-05-07T06:07:14;21.13;;;13.45;;
41635;SDS011;27623;51.966;4.602;2023-05-07T06:09:40;19.13;;;13.82;;
41635;SDS011;27623;51.966;4.602;2023-05-07T06:12:05;21.40;;;14.43;;
41635;SDS011;27623;51.966;4.602;2023-05-07T06:14:31;21.98;;;14.32;;
41635;SDS011;27623;51.966;4.602;2023-05-07T06:16:56;21.17;;;14.48;;
41635;SDS011;27623;51.966;4.602;2023-05-07T06:19:22;19.02;;;14.73;;
41635;SDS011;27623;51.966;4.602;2023-05-07T06:21:48;22.27;;;16.30;;
41635;SDS011;27623;51.966;4.602;2023-05-07T06:24:16;23.33;;;15.80;;
41635;SDS011;27623;51.966;4.602;2023-05-07T06:26:42;23.20;;;16.90;;
41635;SDS011;27623;51.966;4.602;2023-05-07T06:29:07;25.40;;;17.33;;
41635;SDS011;27623;51.966;4.602;2023-05-07T06:31:32;28.58;;;16.58;;
41635;SDS011;27623;51.966;4.602;2023-05-07T06:33:58;22.35;;;16.60;;
41635;SDS011;27623;51.966;4.602;2023-05-07T06:36:24;22.98;;;17.65;;
41635;SDS011;27623;51.966;4.602;2023-05-07T06:38:51;25.17;;;18.02;;
41635;SDS011;27623;51.966;4.602;2023-05-07T06:41:17;25.77;;;18.08;;
41635;SDS011;27623;51.966;4.602;2023-05-07T06:43:42;25.30;;;18.00;;
41635;SDS011;27623;51.966;4.602;2023-05-07T06:46:07;24.77;;;18.10;;
41635;SDS011;27623;51.966;4.602;2023-05-07T06:48:33;24.10;;;17.38;;
41635;SDS011;27623;51.966;4.602;2023-05-07T06:51:00;24.33;;;18.67;;
41635;SDS011;27623;51.966;4.602;2023-05-07T06:53:26;25.75;;;18.08;;
41635;SDS011;27623;51.966;4.602;2023-05-07T06:55:51;25.83;;;17.98;;
41635;SDS011;27623;51.966;4.602;2023-05-07T06:58:17;24.30;;;16.98;;
41635;SDS011;27623;51.966;4.602;2023-05-07T07:00:45;24.73;;;17.65;;
41635;SDS011;27623;51.966;4.602;2023-05-07T07:03:10;26.10;;;18.65;;
41635;SDS011;27623;51.966;4.602;2023-05-07T07:05:36;27.90;;;18.08;;
41635;SDS011;27623;51.966;4.602;2023-05-07T07:08:05;23.73;;;17.35;;
41635;SDS011;27623;51.966;4.602;2023-05-07T07:10:30;24.45;;;16.88;;
41635;SDS011;27623;51.966;4.602;2023-05-07T07:12:58;24.75;;;16.25;;
41635;SDS011;27623;51.966;4.602;2023-05-07T07:15:24;25.33;;;17.40;;
41635;SDS011;27623;51.966;4.602;2023-05-07T07:17:50;22.63;;;16.20;;
41635;SDS011;27623;51.966;4.602;2023-05-07T07:20:16;25.88;;;16.98;;
41635;SDS011;27623;51.966;4.602;2023-05-07T07:22:43;25.17;;;17.80;;
41635;SDS011;27623;51.966;4.602;2023-05-07T07:25:09;22.73;;;17.42;;
41635;SDS011;27623;51.966;4.602;2023-05-07T07:27:37;24.83;;;17.35;;
41635;SDS011;27623;51.966;4.602;2023-05-07T07:30:02;24.00;;;17.35;;
41635;SDS011;27623;51.966;4.602;2023-05-07T07:32:28;28.13;;;17.42;;
41635;SDS011;27623;51.966;4.602;2023-05-07T07:34:56;26.85;;;16.98;;
41635;SDS011;27623;51.966;4.602;2023-05-07T07:37:21;22.15;;;16.23;;
41635;SDS011;27623;51.966;4.602;2023-05-07T07:39:46;24.73;;;17.33;;
41635;SDS011;27623;51.966;4.602;2023-05-07T07:42:12;20.27;;;14.73;;
41635;SDS011;27623;51.966;4.602;2023-05-07T07:44:37;22.95;;;15.35;;
41635;SDS011;27623;51.966;4.602;2023-05-07T07:47:04;22.90;;;15.20;;
41635;SDS011;27623;51.966;4.602;2023-05-07T07:49:29;23.15;;;15.23;;
41635;SDS011;27623;51.966;4.602;2023-05-07T07:51:55;22.55;;;15.07;;
41635;SDS011;27623;51.966;4.602;2023-05-07T07:54:23;20.48;;;15.02;;
41635;SDS011;27623;51.966;4.602;2023-05-07T07:56:49;20.88;;;14.18;;
41635;SDS011;27623;51.966;4.602;2023-05-07T07:59:14;21.58;;;14.50;;
41635;SDS011;27623;51.966;4.602;2023-05-07T08:01:44;21.80;;;14.50;;
41635;SDS011;27623;51.966;4.602;2023-05-07T08:04:10;24.50;;;15.43;;
41635;SDS011;27623;51.966;4.602;2023-05-07T08:06:37;24.30;;;14.90;;
41635;SDS011;27623;51.966;4.602;2023-05-07T08:09:03;24.95;;;16.33;;
41635;SDS011;27623;51.966;4.602;2023-05-07T08:11:28;24.90;;;17.35;;
41635;SDS011;27623;51.966;4.602;2023-05-07T08:13:54;23.77;;;17.52;;
41635;SDS011;27623;51.966;4.602;2023-05-07T08:16:22;26.40;;;19.00;;
41635;SDS011;27623;51.966;4.602;2023-05-07T08:18:48;26.05;;;19.15;;
41635;SDS011;27623;51.966;4.602;2023-05-07T08:21:13;23.35;;;18.35;;
41635;SDS011;27623;51.966;4.602;2023-05-07T08:23:38;27.88;;;18.50;;
41635;SDS011;27623;51.966;4.602;2023-05-07T08:26:07;29.17;;;20.10;;
41635;SDS011;27623;51.966;4.602;2023-05-07T08:28:33;27.13;;;18.67;;
41635;SDS011;27623;51.966;4.602;2023-05-07T08:31:00;27.55;;;18.40;;
41635;SDS011;27623;51.966;4.602;2023-05-07T08:33:28;25.60;;;18.25;;
41635;SDS011;27623;51.966;4.602;2023-05-07T08:35:56;26.10;;;17.48;;
41635;SDS011;27623;51.966;4.602;2023-05-07T08:38:24;26.65;;;19.83;;
41635;SDS011;27623;51.966;4.602;2023-05-07T08:40:49;27.77;;;19.15;;
41635;SDS011;27623;51.966;4.602;2023-05-07T08:43:17;31.23;;;20.10;;
41635;SDS011;27623;51.966;4.602;2023-05-07T08:45:43;26.45;;;19.23;;
41635;SDS011;27623;51.966;4.602;2023-05-07T08:48:14;28.35;;;18.27;;
41635;SDS011;27623;51.966;4.602;2023-05-07T08:50:41;24.23;;;18.30;;
41635;SDS011;27623;51.966;4.602;2023-05-07T08:53:06;27.92;;;19.45;;
41635;SDS011;27623;51.966;4.602;2023-05-07T08:55:32;28.60;;;19.17;;
41635;SDS011;27623;51.966;4.602;2023-05-07T08:57:58;22.45;;;16.23;;
41635;SDS011;27623;51.966;4.602;2023-05-07T09:00:26;24.60;;;16.55;;
41635;SDS011;27623;51.966;4.602;2023-05-07T09:02:52;24.55;;;17.65;;
41635;SDS011;27623;51.966;4.602;2023-05-07T09:05:20;23.90;;;16.52;;
41635;SDS011;27623;51.966;4.602;2023-05-07T09:07:48;23.38;;;16.80;;
41635;SDS011;27623;51.966;4.602;2023-05-07T09:10:15;18.52;;;13.10;;
41635;SDS011;27623;51.966;4.602;2023-05-07T09:12:40;17.73;;;12.70;;
41635;SDS011;27623;51.966;4.602;2023-05-07T09:15:06;22.50;;;12.80;;
41635;SDS011;27623;51.966;4.602;2023-05-07T09:17:34;19.90;;;13.45;;
41635;SDS011;27623;51.966;4.602;2023-05-07T09:20:03;18.75;;;13.68;;
41635;SDS011;27623;51.966;4.602;2023-05-07T09:22:31;21.08;;;15.27;;
41635;SDS011;27623;51.966;4.602;2023-05-07T09:24:58;26.85;;;15.63;;
41635;SDS011;27623;51.966;4.602;2023-05-07T09:27:23;23.65;;;15.98;;
41635;SDS011;27623;51.966;4.602;2023-05-07T09:29:48;21.90;;;14.35;;
41635;SDS011;27623;51.966;4.602;2023-05-07T09:32:15;17.95;;;13.82;;
41635;SDS011;27623;51.966;4.602;2023-05-07T09:34:42;18.65;;;13.75;;
41635;SDS011;27623;51.966;4.602;2023-05-07T09:37:08;15.93;;;12.45;;
41635;SDS011;27623;51.966;4.602;2023-05-07T09:42:05;16.00;;;10.05;;
41635;SDS011;27623;51.966;4.602;2023-05-07T09:44:31;16.13;;;9.40;;
41635;SDS011;27623;51.966;4.602;2023-05-07T09:46:57;12.07;;;9.00;;
41635;SDS011;27623;51.966;4.602;2023-05-07T09:49:25;14.52;;;9.90;;
41635;SDS011;27623;51.966;4.602;2023-05-07T09:51:57;18.17;;;12.05;;
41635;SDS011;27623;51.966;4.602;2023-05-07T09:54:25;16.40;;;11.52;;
41635;SDS011;27623;51.966;4.602;2023-05-07T09:56:54;17.50;;;13.00;;
41635;SDS011;27623;51.966;4.602;2023-05-07T09:59:23;19.20;;;13.25;;
41635;SDS011;27623;51.966;4.602;2023-05-07T10:01:50;16.83;;;13.52;;
41635;SDS011;27623;51.966;4.602;2023-05-07T10:04:18;17.70;;;12.55;;
41635;SDS011;27623;51.966;4.602;2023-05-07T10:06:45;20.30;;;13.73;;
41635;SDS011;27623;51.966;4.602;2023-05-07T10:09:11;17.85;;;12.70;;
41635;SDS011;27623;51.966;4.602;2023-05-07T10:11:38;16.60;;;11.07;;
41635;SDS011;27623;51.966;4.602;2023-05-07T10:14:05;18.85;;;12.98;;
41635;SDS011;27623;51.966;4.602;2023-05-07T10:16:34;18.17;;;12.20;;
41635;SDS011;27623;51.966;4.602;2023-05-07T10:19:03;19.27;;;12.70;;
41635;SDS011;27623;51.966;4.602;2023-05-07T10:21:29;15.45;;;10.98;;
41635;SDS011;27623;51.966;4.602;2023-05-07T10:26:28;16.77;;;12.18;;
41635;SDS011;27623;51.966;4.602;2023-05-07T10:29:06;16.77;;;11.48;;
41635;SDS011;27623;51.966;4.602;2023-05-07T10:31:44;11.55;;;7.60;;
41635;SDS011;27623;51.966;4.602;2023-05-07T10:34:14;10.93;;;6.05;;
41635;SDS011;27623;51.966;4.602;2023-05-07T10:36:46;13.77;;;8.18;;
41635;SDS011;27623;51.966;4.602;2023-05-07T10:39:17;14.77;;;9.57;;
41635;SDS011;27623;51.966;4.602;2023-05-07T10:41:45;11.75;;;8.32;;
41635;SDS011;27623;51.966;4.602;2023-05-07T10:44:11;13.85;;;9.18;;
41635;SDS011;27623;51.966;4.602;2023-05-07T10:46:36;11.07;;;8.43;;
41635;SDS011;27623;51.966;4.602;2023-05-07T10:51:34;12.82;;;6.47;;
41635;SDS011;27623;51.966;4.602;2023-05-07T10:56:41;9.90;;;7.28;;
41635;SDS011;27623;51.966;4.602;2023-05-07T11:01:59;10.48;;;5.80;;
41635;SDS011;27623;51.966;4.602;2023-05-07T11:04:25;9.00;;;5.53;;
41635;SDS011;27623;51.966;4.602;2023-05-07T11:15:04;9.48;;;6.72;;
41635;SDS011;27623;51.966;4.602;2023-05-07T11:17:32;13.15;;;7.00;;
41635;SDS011;27623;51.966;4.602;2023-05-07T11:20:01;17.70;;;6.93;;
41635;SDS011;27623;51.966;4.602;2023-05-07T11:24:56;10.18;;;7.38;;
41635;SDS011;27623;51.966;4.602;2023-05-07T11:27:25;12.88;;;6.78;;
41635;SDS011;27623;51.966;4.602;2023-05-07T11:29:51;10.82;;;6.90;;
41635;SDS011;27623;51.966;4.602;2023-05-07T11:32:24;10.82;;;7.43;;
41635;SDS011;27623;51.966;4.602;2023-05-07T11:34:53;12.93;;;7.47;;
41635;SDS011;27623;51.966;4.602;2023-05-07T11:37:20;12.93;;;7.20;;
41635;SDS011;27623;51.966;4.602;2023-05-07T11:39:47;12.77;;;7.57;;
41635;SDS011;27623;51.966;4.602;2023-05-07T11:42:25;12.43;;;7.70;;
41635;SDS011;27623;51.966;4.602;2023-05-07T11:44:51;15.95;;;8.65;;
41635;SDS011;27623;51.966;4.602;2023-05-07T11:47:20;12.70;;;7.10;;
41635;SDS011;27623;51.966;4.602;2023-05-07T11:49:49;13.35;;;7.38;;
41635;SDS011;27623;51.966;4.602;2023-05-07T11:52:19;9.57;;;6.75;;
41635;SDS011;27623;51.966;4.602;2023-05-07T11:54:52;11.70;;;7.13;;
41635;SDS011;27623;51.966;4.602;2023-05-07T11:57:19;13.43;;;8.20;;
41635;SDS011;27623;51.966;4.602;2023-05-07T11:59:46;14.25;;;7.60;;
41635;SDS011;27623;51.966;4.602;2023-05-07T12:02:14;11.63;;;6.78;;
41635;SDS011;27623;51.966;4.602;2023-05-07T12:04:42;12.27;;;7.18;;
41635;SDS011;27623;51.966;4.602;2023-05-07T12:07:14;10.45;;;7.00;;
41635;SDS011;27623;51.966;4.602;2023-05-07T12:09:43;9.77;;;6.78;;
41635;SDS011;27623;51.966;4.602;2023-05-07T12:12:09;13.15;;;7.07;;
41635;SDS011;27623;51.966;4.602;2023-05-07T12:14:41;11.13;;;6.53;;
41635;SDS011;27623;51.966;4.602;2023-05-07T12:17:08;11.90;;;7.35;;
41635;SDS011;27623;51.966;4.602;2023-05-07T12:19:37;12.38;;;7.60;;
41635;SDS011;27623;51.966;4.602;2023-05-07T12:22:04;9.73;;;7.25;;
41635;SDS011;27623;51.966;4.602;2023-05-07T12:24:43;11.70;;;6.55;;
41635;SDS011;27623;51.966;4.602;2023-05-07T12:27:12;11.60;;;7.53;;
41635;SDS011;27623;51.966;4.602;2023-05-07T12:29:38;13.02;;;8.20;;
41635;SDS011;27623;51.966;4.602;2023-05-07T12:32:05;11.15;;;7.60;;
41635;SDS011;27623;51.966;4.602;2023-05-07T12:34:31;16.42;;;9.20;;
41635;SDS011;27623;51.966;4.602;2023-05-07T12:36:56;12.77;;;7.28;;
41635;SDS011;27623;51.966;4.602;2023-05-07T12:39:22;12.38;;;7.32;;
41635;SDS011;27623;51.966;4.602;2023-05-07T12:41:57;14.50;;;7.93;;
41635;SDS011;27623;51.966;4.602;2023-05-07T12:44:24;13.00;;;7.22;;
41635;SDS011;27623;51.966;4.602;2023-05-07T12:46:53;12.25;;;7.40;;
41635;SDS011;27623;51.966;4.602;2023-05-07T12:49:19;13.90;;;7.40;;
41635;SDS011;27623;51.966;4.602;2023-05-07T12:51:46;16.25;;;7.32;;
41635;SDS011;27623;51.966;4.602;2023-05-07T12:54:12;11.35;;;6.30;;
41635;SDS011;27623;51.966;4.602;2023-05-07T12:56:37;9.55;;;6.72;;
41635;SDS011;27623;51.966;4.602;2023-05-07T12:59:05;15.05;;;7.18;;
41635;SDS011;27623;51.966;4.602;2023-05-07T13:01:30;12.18;;;7.38;;
41635;SDS011;27623;51.966;4.602;2023-05-07T13:04:00;11.43;;;6.50;;
41635;SDS011;27623;51.966;4.602;2023-05-07T13:06:26;10.63;;;5.85;;
41635;SDS011;27623;51.966;4.602;2023-05-07T13:08:51;10.35;;;5.40;;
41635;SDS011;27623;51.966;4.602;2023-05-07T13:11:17;8.27;;;4.75;;
41635;SDS011;27623;51.966;4.602;2023-05-07T13:13:42;8.75;;;4.68;;
41635;SDS011;27623;51.966;4.602;2023-05-07T13:16:08;10.70;;;4.70;;
41635;SDS011;27623;51.966;4.602;2023-05-07T13:18:35;14.68;;;7.97;;
41635;SDS011;27623;51.966;4.602;2023-05-07T13:21:03;17.10;;;9.40;;
41635;SDS011;27623;51.966;4.602;2023-05-07T13:23:29;25.75;;;10.95;;
41635;SDS011;27623;51.966;4.602;2023-05-07T13:25:54;17.98;;;9.27;;
41635;SDS011;27623;51.966;4.602;2023-05-07T13:28:21;19.02;;;10.52;;
41635;SDS011;27623;51.966;4.602;2023-05-07T13:30:47;21.48;;;11.43;;
41635;SDS011;27623;51.966;4.602;2023-05-07T13:33:13;23.77;;;11.52;;
41635;SDS011;27623;51.966;4.602;2023-05-07T13:35:39;18.42;;;11.23;;
41635;SDS011;27623;51.966;4.602;2023-05-07T13:38:04;19.25;;;11.77;;
41635;SDS011;27623;51.966;4.602;2023-05-07T13:40:30;22.80;;;11.90;;
41635;SDS011;27623;51.966;4.602;2023-05-07T13:42:56;20.10;;;11.68;;
41635;SDS011;27623;51.966;4.602;2023-05-07T13:45:23;21.27;;;12.93;;
41635;SDS011;27623;51.966;4.602;2023-05-07T13:47:53;19.73;;;13.15;;
41635;SDS011;27623;51.966;4.602;2023-05-07T13:50:18;27.25;;;12.77;;
41635;SDS011;27623;51.966;4.602;2023-05-07T13:52:44;24.02;;;13.07;;
41635;SDS011;27623;51.966;4.602;2023-05-07T13:55:16;22.30;;;12.30;;
41635;SDS011;27623;51.966;4.602;2023-05-07T13:57:45;21.60;;;11.07;;
41635;SDS011;27623;51.966;4.602;2023-05-07T14:00:11;18.85;;;11.48;;
41635;SDS011;27623;51.966;4.602;2023-05-07T14:02:38;20.33;;;12.13;;
41635;SDS011;27623;51.966;4.602;2023-05-07T14:05:03;33.08;;;16.45;;
41635;SDS011;27623;51.966;4.602;2023-05-07T14:07:29;28.75;;;15.85;;
41635;SDS011;27623;51.966;4.602;2023-05-07T14:09:55;25.25;;;12.70;;
41635;SDS011;27623;51.966;4.602;2023-05-07T14:12:23;21.75;;;12.80;;
41635;SDS011;27623;51.966;4.602;2023-05-07T14:14:49;25.80;;;13.70;;
41635;SDS011;27623;51.966;4.602;2023-05-07T14:17:18;25.23;;;13.50;;
41635;SDS011;27623;51.966;4.602;2023-05-07T14:19:44;18.35;;;13.27;;
41635;SDS011;27623;51.966;4.602;2023-05-07T14:22:09;17.23;;;13.10;;
41635;SDS011;27623;51.966;4.602;2023-05-07T14:24:35;22.92;;;15.23;;
41635;SDS011;27623;51.966;4.602;2023-05-07T14:27:04;25.73;;;15.65;;
41635;SDS011;27623;51.966;4.602;2023-05-07T14:29:33;27.90;;;17.50;;
41635;SDS011;27623;51.966;4.602;2023-05-07T14:32:00;29.67;;;17.25;;
41635;SDS011;27623;51.966;4.602;2023-05-07T14:34:25;28.55;;;17.05;;
41635;SDS011;27623;51.966;4.602;2023-05-07T14:36:51;25.27;;;17.40;;
41635;SDS011;27623;51.966;4.602;2023-05-07T14:39:19;26.08;;;16.27;;
41635;SDS011;27623;51.966;4.602;2023-05-07T14:41:45;26.30;;;15.15;;
41635;SDS011;27623;51.966;4.602;2023-05-07T14:44:10;22.90;;;15.05;;